createdAt,value
2023-04-25T00:01:25.241Z,77.10
2023-04-25T00:03:52.512Z,79.60
2023-04-25T00:06:19.785Z,81.30
2023-04-25T00:08:46.617Z,82.00
2023-04-25T00:11:13.398Z,81.90
2023-04-25T00:13:42.720Z,81.30
2023-04-25T00:16:09.629Z,81.40
2023-04-25T00:18:37.309Z,82.80
2023-04-25T00:21:04.088Z,83.80
2023-04-25T00:23:30.867Z,84.00
2023-04-25T00:25:57.598Z,85.10
2023-04-25T00:28:24.376Z,84.80
2023-04-25T00:30:51.338Z,84.70
2023-04-25T00:33:18.088Z,85.60
2023-04-25T00:35:44.832Z,86.60
2023-04-25T00:38:11.592Z,88.60
2023-04-25T00:40:38.354Z,89.70
2023-04-25T00:43:05.217Z,90.20
2023-04-25T00:45:32.247Z,90.50
2023-04-25T00:47:59.051Z,90.50
2023-04-25T00:50:25.896Z,90.80
2023-04-25T00:52:53.206Z,91.00
2023-04-25T00:55:20.959Z,91.30
2023-04-25T00:57:47.928Z,91.40
2023-04-25T01:00:15.660Z,91.50
2023-04-25T01:02:46.009Z,91.60
2023-04-25T01:05:13.248Z,91.60
2023-04-25T01:07:40.196Z,91.50
2023-04-25T01:10:07.585Z,91.50
2023-04-25T01:12:34.706Z,91.50
2023-04-25T01:15:01.789Z,91.70
2023-04-25T01:17:30.160Z,91.90
2023-04-25T01:19:57.202Z,92.00
2023-04-25T01:22:24.360Z,92.20
2023-04-25T01:24:51.204Z,92.30
2023-04-25T01:27:19.065Z,92.30
2023-04-25T01:29:46.688Z,92.50
2023-04-25T01:32:14.984Z,92.60
2023-04-25T01:34:41.751Z,92.70
2023-04-25T01:37:08.525Z,92.80
2023-04-25T01:39:35.343Z,93.10
2023-04-25T01:42:02.644Z,93.20
2023-04-25T01:44:29.540Z,93.30
2023-04-25T01:46:56.380Z,93.50
2023-04-25T01:49:23.133Z,93.50
2023-04-25T01:51:49.987Z,93.50
2023-04-25T01:54:16.704Z,93.50
2023-04-25T01:56:43.453Z,93.60
2023-04-25T01:59:10.234Z,93.50
2023-04-25T02:01:37.128Z,93.60
2023-04-25T02:04:04.156Z,93.50
2023-04-25T02:06:31.903Z,93.50
2023-04-25T02:08:58.640Z,93.50
2023-04-25T02:11:25.341Z,93.40
2023-04-25T02:13:52.176Z,93.40
2023-04-25T02:16:20.118Z,93.50
2023-04-25T02:18:47.971Z,93.60
2023-04-25T02:21:14.738Z,93.60
2023-04-25T02:23:41.576Z,93.60
2023-04-25T02:26:08.304Z,93.70
2023-04-25T02:28:35.032Z,93.60
2023-04-25T02:31:01.854Z,93.70
2023-04-25T02:33:28.722Z,93.80
2023-04-25T02:35:55.476Z,93.80
2023-04-25T02:38:22.147Z,93.80
2023-04-25T02:40:48.902Z,93.90
2023-04-25T02:43:17.021Z,93.90
2023-04-25T02:45:43.787Z,93.90
2023-04-25T02:48:10.598Z,93.90
2023-04-25T02:50:37.403Z,93.90
2023-04-25T02:53:04.170Z,93.80
2023-04-25T02:55:30.908Z,94.00
2023-04-25T02:57:57.686Z,94.00
2023-04-25T03:00:24.396Z,94.00
2023-04-25T03:02:52.066Z,94.10
2023-04-25T03:05:19.009Z,94.10
2023-04-25T03:07:46.691Z,94.10
2023-04-25T03:10:13.605Z,94.10
2023-04-25T03:12:40.302Z,94.10
2023-04-25T03:15:07.385Z,94.10
2023-04-25T03:17:34.218Z,94.10
2023-04-25T03:20:02.095Z,94.10
2023-04-25T03:22:28.891Z,94.10
2023-04-25T03:24:55.623Z,94.20
2023-04-25T03:27:22.352Z,94.30
2023-04-25T03:29:49.062Z,94.30
2023-04-25T03:32:16.006Z,94.30
2023-04-25T03:34:42.791Z,94.40
2023-04-25T03:37:09.507Z,94.40
2023-04-25T03:39:36.227Z,94.50
2023-04-25T03:42:03.883Z,94.50
2023-04-25T03:44:30.677Z,94.60
2023-04-25T03:46:57.724Z,94.60
2023-04-25T03:49:25.207Z,94.60
2023-04-25T03:51:52.018Z,94.60
2023-04-25T03:54:18.745Z,94.60
2023-04-25T03:56:45.560Z,94.60
2023-04-25T03:59:12.319Z,94.60
2023-04-25T04:01:39.020Z,94.70
2023-04-25T04:04:06.040Z,94.60
2023-04-25T04:06:33.187Z,94.60
2023-04-25T04:08:59.893Z,94.60
2023-04-25T04:11:27.041Z,94.60
2023-04-25T04:13:53.749Z,94.70
2023-04-25T04:16:20.584Z,94.70
2023-04-25T04:18:47.531Z,94.70
2023-04-25T04:21:14.286Z,94.70
2023-04-25T04:23:41.323Z,94.80
2023-04-25T04:26:09.576Z,94.80
2023-04-25T04:28:36.772Z,94.80
2023-04-25T04:31:03.874Z,94.90
2023-04-25T04:33:32.095Z,94.90
2023-04-25T04:35:58.876Z,94.90
2023-04-25T04:38:26.430Z,94.90
2023-04-25T04:40:53.486Z,95.00
2023-04-25T04:43:20.253Z,95.00
2023-04-25T04:45:47.087Z,95.00
2023-04-25T04:48:15.123Z,95.00
2023-04-25T04:50:43.742Z,95.00
2023-04-25T04:53:10.475Z,95.00
2023-04-25T04:55:37.272Z,95.00
2023-04-25T04:58:04.047Z,95.00
2023-04-25T05:00:30.947Z,95.00
2023-04-25T05:02:58.171Z,95.10
2023-04-25T05:05:25.200Z,95.10
2023-04-25T05:07:52.587Z,95.10
2023-04-25T05:10:20.425Z,95.10
2023-04-25T05:12:47.332Z,95.10
2023-04-25T05:15:14.812Z,95.10
2023-04-25T05:17:41.611Z,95.10
2023-04-25T05:20:10.316Z,95.10
2023-04-25T05:22:37.114Z,95.20
2023-04-25T05:25:04.632Z,95.20
2023-04-25T05:27:31.444Z,95.20
2023-04-25T05:29:58.165Z,95.20
2023-04-25T05:32:26.186Z,95.20
2023-04-25T05:34:53.108Z,95.20
2023-04-25T05:37:19.917Z,95.20
2023-04-25T05:39:46.667Z,95.30
2023-04-25T05:42:13.471Z,95.20
2023-04-25T05:44:40.417Z,95.30
2023-04-25T05:47:07.256Z,95.30
2023-04-25T05:49:34.675Z,95.20
2023-04-25T05:52:01.615Z,95.20
2023-04-25T05:54:28.353Z,95.20
2023-04-25T05:56:55.115Z,95.20
2023-04-25T05:59:21.845Z,95.20
2023-04-25T06:01:48.557Z,95.20
2023-04-25T06:04:15.594Z,95.10
2023-04-25T06:06:42.532Z,95.10
2023-04-25T06:09:09.253Z,95.00
2023-04-25T06:11:36.167Z,95.00
2023-04-25T06:14:02.953Z,95.00
2023-04-25T06:16:29.894Z,90.30
2023-04-25T06:18:56.740Z,90.10
2023-04-25T06:21:23.516Z,90.10
2023-04-25T06:23:50.618Z,90.10
2023-04-25T06:26:17.826Z,89.30
2023-04-25T06:28:44.628Z,88.80
2023-04-25T06:31:11.541Z,87.40
2023-04-25T06:33:38.457Z,84.40
2023-04-25T06:36:05.474Z,82.60
2023-04-25T06:38:32.380Z,82.40
2023-04-25T06:40:59.070Z,82.10
2023-04-25T06:43:25.807Z,81.20
2023-04-25T06:45:52.587Z,79.50
2023-04-25T06:48:19.316Z,79.70
2023-04-25T06:50:46.114Z,76.00
2023-04-25T06:53:13.125Z,73.30
2023-04-25T06:55:39.931Z,72.20
2023-04-25T06:58:06.624Z,73.30
2023-04-25T07:00:34.546Z,69.60
2023-04-25T07:03:01.752Z,66.60
2023-04-25T07:05:28.667Z,63.80
2023-04-25T07:07:55.909Z,62.40
2023-04-25T07:10:22.762Z,60.10
2023-04-25T07:12:49.657Z,1.00
2023-04-25T07:15:16.759Z,1.00
2023-04-25T07:17:43.702Z,1.00
2023-04-25T07:20:11.177Z,82.80
2023-04-25T07:22:38.028Z,53.40
2023-04-25T07:25:08.220Z,3.40
2023-04-25T07:27:34.983Z,1.00
2023-04-25T07:30:01.853Z,66.50
2023-04-25T07:32:28.687Z,75.60
2023-04-25T07:34:55.560Z,15.50
2023-04-25T07:37:22.388Z,1.00
2023-04-25T07:39:49.435Z,1.00
2023-04-25T07:42:16.158Z,12.00
2023-04-25T07:44:43.374Z,85.30
2023-04-25T07:47:11.301Z,91.00
2023-04-25T07:49:38.471Z,74.10
2023-04-25T07:52:07.341Z,34.30
2023-04-25T07:54:34.181Z,50.60
2023-04-25T07:57:00.970Z,1.00
2023-04-25T07:59:30.024Z,1.00
2023-04-25T08:01:58.423Z,1.00
2023-04-25T08:04:26.838Z,90.50
2023-04-25T08:06:54.786Z,87.40
2023-04-25T08:09:22.199Z,1.00
2023-04-25T08:11:49.328Z,24.40
2023-04-25T08:14:16.065Z,89.90
2023-04-25T08:16:43.326Z,83.40
2023-04-25T08:19:11.202Z,1.00
2023-04-25T08:21:38.047Z,80.50
2023-04-25T08:24:05.029Z,61.80
2023-04-25T08:26:31.870Z,41.70
2023-04-25T08:28:58.586Z,73.10
2023-04-25T08:31:25.329Z,10.50
2023-04-25T08:33:53.027Z,1.00
2023-04-25T08:36:31.504Z,1.00
2023-04-25T08:39:05.134Z,72.90
2023-04-25T08:41:32.738Z,44.60
2023-04-25T08:44:01.551Z,79.00
2023-04-25T08:46:28.835Z,1.00
2023-04-25T08:49:01.057Z,86.60
2023-04-25T08:51:31.950Z,1.00
2023-04-25T08:54:16.184Z,4.20
2023-04-25T08:56:50.721Z,1.00
2023-04-25T08:59:18.436Z,8.70
2023-04-25T09:01:46.151Z,68.70
2023-04-25T09:04:13.867Z,41.60
2023-04-25T09:06:40.950Z,1.00
2023-04-25T09:09:09.735Z,1.00
2023-04-25T09:11:37.917Z,70.30
2023-04-25T09:14:17.961Z,1.00
2023-04-25T09:16:56.697Z,1.00
2023-04-25T09:19:38.770Z,70.10
2023-04-25T09:22:08.798Z,1.00
2023-04-25T09:24:41.654Z,1.00
2023-04-25T09:27:13.165Z,1.00
2023-04-25T09:29:41.828Z,8.40
2023-04-25T09:32:17.603Z,43.20
2023-04-25T09:34:49.359Z,62.50
2023-04-25T09:37:42.681Z,61.60
2023-04-25T09:40:11.134Z,64.20
2023-04-25T09:42:42.508Z,62.70
2023-04-25T09:45:13.578Z,61.00
2023-04-25T09:47:41.509Z,60.00
2023-04-25T09:50:20.067Z,1.00
2023-04-25T09:52:46.861Z,16.50
2023-04-25T09:55:13.693Z,1.00
2023-04-25T09:57:41.321Z,1.00
2023-04-25T10:00:13.029Z,1.00
2023-04-25T10:02:43.439Z,4.90
2023-04-25T10:05:11.710Z,24.00
2023-04-25T10:07:39.833Z,19.50
2023-04-25T10:10:07.249Z,1.00
2023-04-25T10:12:35.133Z,1.00
2023-04-25T10:15:03.784Z,1.00
2023-04-25T10:17:30.940Z,1.00
2023-04-25T10:19:58.478Z,1.00
2023-04-25T10:22:33.949Z,1.00
2023-04-25T10:25:01.339Z,89.60
2023-04-25T10:27:29.348Z,1.00
2023-04-25T10:30:12.461Z,1.00
2023-04-25T10:32:39.663Z,1.00
2023-04-25T10:35:24.943Z,1.00
2023-04-25T10:38:11.400Z,58.80
2023-04-25T10:40:38.187Z,38.00
2023-04-25T10:43:29.810Z,55.90
2023-04-25T10:45:56.508Z,1.00
2023-04-25T10:48:50.321Z,1.00
2023-04-25T10:51:25.831Z,81.00
2023-04-25T10:54:06.441Z,1.00
2023-04-25T10:56:42.294Z,1.00
2023-04-25T10:59:19.208Z,3.20
2023-04-25T11:01:48.323Z,5.40
2023-04-25T11:04:26.848Z,1.00
2023-04-25T11:07:09.297Z,1.00
2023-04-25T11:09:37.370Z,78.80
2023-04-25T11:12:04.582Z,67.00
2023-04-25T11:14:31.431Z,1.00
2023-04-25T11:17:00.746Z,1.00
2023-04-25T11:19:28.947Z,1.00
2023-04-25T11:22:03.675Z,15.40
2023-04-25T11:24:35.884Z,72.70
2023-04-25T11:27:03.780Z,17.40
2023-04-25T11:29:31.990Z,19.00
2023-04-25T11:31:59.628Z,1.00
2023-04-25T11:34:27.138Z,1.00
2023-04-25T11:36:54.592Z,1.00
2023-04-25T11:39:22.414Z,14.90
2023-04-25T11:41:49.314Z,1.00
2023-04-25T11:44:20.502Z,1.00
2023-04-25T11:46:47.706Z,1.00
2023-04-25T11:49:19.285Z,1.00
2023-04-25T11:51:48.457Z,15.10
2023-04-25T11:54:16.417Z,45.70
2023-04-25T11:56:44.342Z,29.60
2023-04-25T11:59:11.591Z,55.50
2023-04-25T12:01:40.786Z,63.00
2023-04-25T12:04:15.109Z,68.70
2023-04-25T12:06:43.655Z,72.00
2023-04-25T12:09:12.223Z,70.40
2023-04-25T12:11:49.979Z,38.10
2023-04-25T12:14:30.976Z,51.60
2023-04-25T12:16:59.993Z,32.60
2023-04-25T12:19:27.549Z,38.20
2023-04-25T12:21:58.710Z,15.90
2023-04-25T12:24:28.394Z,26.80
2023-04-25T12:27:06.069Z,35.80
2023-04-25T12:29:46.000Z,56.50
2023-04-25T12:32:16.694Z,39.60
2023-04-25T12:34:43.595Z,36.60
2023-04-25T12:37:10.658Z,28.30
2023-04-25T12:39:37.602Z,39.30
2023-04-25T12:42:07.821Z,14.50
2023-04-25T12:44:36.656Z,1.00
2023-04-25T12:47:04.160Z,23.10
2023-04-25T12:49:31.289Z,8.70
2023-04-25T12:51:58.299Z,1.00
2023-04-25T12:54:25.713Z,28.20
2023-04-25T12:56:52.573Z,29.50
2023-04-25T12:59:20.915Z,1.00
2023-04-25T13:01:47.969Z,52.60
2023-04-25T13:04:14.914Z,53.00
2023-04-25T13:06:41.705Z,63.10
2023-04-25T13:09:08.397Z,60.50
2023-04-25T13:11:35.206Z,63.90
2023-04-25T13:14:02.705Z,13.20
2023-04-25T13:16:29.580Z,1.00
2023-04-25T13:18:57.358Z,10.30
2023-04-25T13:21:24.397Z,1.00
2023-04-25T13:23:51.382Z,1.00
2023-04-25T13:26:18.511Z,1.00
2023-04-25T13:28:45.916Z,1.00
2023-04-25T13:31:12.727Z,1.00
2023-04-25T13:33:39.503Z,1.00
2023-04-25T13:36:06.545Z,91.30
2023-04-25T13:38:33.617Z,82.60
2023-04-25T13:41:00.570Z,1.00
2023-04-25T13:43:27.329Z,85.90
2023-04-25T13:45:54.145Z,1.00
2023-04-25T13:48:21.214Z,1.00
2023-04-25T13:50:48.096Z,1.00
2023-04-25T13:53:15.221Z,1.00
2023-04-25T13:55:42.044Z,28.10
2023-04-25T13:58:10.618Z,62.30
2023-04-25T14:00:39.980Z,59.20
2023-04-25T14:03:08.987Z,65.80
2023-04-25T14:05:41.220Z,1.00
2023-04-25T14:08:09.449Z,1.00
2023-04-25T14:10:36.747Z,1.00
2023-04-25T14:13:04.483Z,1.00
2023-04-25T14:15:35.588Z,1.00
2023-04-25T14:18:02.679Z,1.00
2023-04-25T14:20:29.843Z,1.00
2023-04-25T14:22:58.962Z,85.70
2023-04-25T14:25:26.319Z,1.00
2023-04-25T14:27:53.152Z,1.00
2023-04-25T14:30:21.392Z,1.00
2023-04-25T14:32:50.580Z,1.00
2023-04-25T14:35:17.708Z,49.80
2023-04-25T14:37:44.988Z,44.30
2023-04-25T14:40:14.019Z,1.00
2023-04-25T14:42:41.406Z,79.90
2023-04-25T14:45:09.642Z,1.00
2023-04-25T14:47:39.679Z,1.00
2023-04-25T14:50:07.763Z,1.00
2023-04-25T14:52:34.690Z,61.00
2023-04-25T14:55:05.694Z,69.60
2023-04-25T14:57:36.123Z,89.60
2023-04-25T15:00:06.079Z,80.20
2023-04-25T15:02:33.027Z,82.60
2023-04-25T15:05:00.035Z,75.60
2023-04-25T15:07:26.989Z,75.90
2023-04-25T15:09:54.953Z,1.00
2023-04-25T15:12:21.829Z,1.00
2023-04-25T15:14:48.588Z,1.00
2023-04-25T15:17:15.846Z,1.00
2023-04-25T15:19:42.565Z,1.00
2023-04-25T15:22:09.452Z,70.00
2023-04-25T15:24:36.542Z,61.40
2023-04-25T15:27:04.031Z,1.00
2023-04-25T15:29:31.052Z,1.00
2023-04-25T15:31:58.361Z,1.00
2023-04-25T15:34:25.110Z,1.00
2023-04-25T15:36:52.156Z,1.00
2023-04-25T15:39:18.934Z,1.00
2023-04-25T15:41:45.789Z,1.00
2023-04-25T15:44:12.508Z,1.00
2023-04-25T15:46:39.852Z,62.30
2023-04-25T15:49:06.797Z,64.50
2023-04-25T15:51:33.752Z,40.00
2023-04-25T15:54:02.603Z,61.80
2023-04-25T15:56:29.595Z,1.00
2023-04-25T15:58:56.310Z,78.30
2023-04-25T16:01:24.566Z,1.00
2023-04-25T16:03:53.165Z,46.20
2023-04-25T16:06:20.385Z,74.70
2023-04-25T16:08:47.134Z,1.00
2023-04-25T16:11:14.800Z,1.00
2023-04-25T16:13:41.772Z,1.00
2023-04-25T16:16:08.788Z,1.00
2023-04-25T16:18:35.768Z,1.00
2023-04-25T16:21:02.756Z,1.00
2023-04-25T16:23:29.926Z,1.00
2023-04-25T16:25:56.848Z,1.00
2023-04-25T16:28:23.681Z,1.00
2023-04-25T16:30:50.505Z,1.00
2023-04-25T16:33:17.328Z,1.00
2023-04-25T16:35:44.474Z,1.00
2023-04-25T16:38:11.235Z,1.00
2023-04-25T16:40:38.073Z,1.00
2023-04-25T16:43:04.827Z,1.00
2023-04-25T16:45:31.775Z,15.50
2023-04-25T16:47:58.634Z,11.70
2023-04-25T16:50:25.536Z,33.60
2023-04-25T16:52:52.505Z,68.20
2023-04-25T16:55:19.368Z,71.30
2023-04-25T16:57:46.111Z,67.30
2023-04-25T17:00:13.645Z,62.50
2023-04-25T17:02:40.699Z,67.60
2023-04-25T17:05:07.950Z,70.40
2023-04-25T17:07:34.667Z,73.30
2023-04-25T17:10:01.447Z,75.20
2023-04-25T17:12:28.264Z,76.30
2023-04-25T17:14:55.021Z,80.00
2023-04-25T17:17:21.792Z,81.70
2023-04-25T17:19:48.544Z,76.90
2023-04-25T17:22:15.756Z,76.40
2023-04-25T17:24:42.577Z,69.10
2023-04-25T17:27:11.223Z,66.00
2023-04-25T17:29:37.969Z,62.60
2023-04-25T17:32:05.062Z,60.00
2023-04-25T17:34:31.898Z,66.20
2023-04-25T17:36:58.776Z,68.70
2023-04-25T17:39:25.563Z,66.30
2023-04-25T17:41:52.712Z,69.10
2023-04-25T17:44:19.464Z,65.30
2023-04-25T17:46:46.211Z,66.60
2023-04-25T17:49:13.059Z,74.20
2023-04-25T17:51:39.853Z,77.30
2023-04-25T17:54:06.720Z,80.40
2023-04-25T17:56:36.358Z,84.10
2023-04-25T17:59:03.213Z,87.60
2023-04-25T18:01:30.362Z,89.10
2023-04-25T18:03:57.255Z,89.60
2023-04-25T18:06:24.149Z,88.80
2023-04-25T18:08:51.542Z,89.60
2023-04-25T18:11:18.566Z,88.00
2023-04-25T18:13:45.325Z,86.80
2023-04-25T18:16:12.165Z,87.20
2023-04-25T18:18:38.959Z,89.20
2023-04-25T18:21:07.845Z,89.70
2023-04-25T18:23:35.131Z,90.20
2023-04-25T18:26:03.968Z,91.00
2023-04-25T18:28:30.836Z,91.20
2023-04-25T18:30:57.938Z,91.70
2023-04-25T18:33:25.244Z,92.10
2023-04-25T18:38:35.036Z,92.40
2023-04-25T18:41:18.424Z,92.50
2023-04-25T18:43:49.783Z,92.50
2023-04-25T18:46:17.764Z,92.80
2023-04-25T18:48:44.564Z,92.60
2023-04-25T18:51:11.789Z,92.90
2023-04-25T18:53:38.634Z,92.90
2023-04-25T18:56:05.634Z,93.10
2023-04-25T18:58:32.550Z,93.40
2023-04-25T19:00:59.946Z,93.60
2023-04-25T19:03:27.552Z,93.60
2023-04-25T19:05:54.436Z,93.80
2023-04-25T19:08:21.742Z,93.90
2023-04-25T19:10:50.223Z,94.00
2023-04-25T19:13:16.979Z,94.00
2023-04-25T19:15:43.770Z,94.00
2023-04-25T19:18:10.589Z,94.00
2023-04-25T19:20:37.480Z,94.10
2023-04-25T19:23:05.422Z,94.00
2023-04-25T19:25:32.242Z,94.00
2023-04-25T19:28:00.602Z,94.10
2023-04-25T19:30:29.321Z,94.10
2023-04-25T19:32:59.092Z,94.20
2023-04-25T19:35:30.722Z,94.30
2023-04-25T19:37:57.508Z,94.40
2023-04-25T19:40:25.120Z,94.40
2023-04-25T19:42:51.836Z,94.50
2023-04-25T19:45:18.685Z,94.50
2023-04-25T19:47:45.504Z,94.60
2023-04-25T19:50:12.436Z,94.60
2023-04-25T19:52:39.493Z,94.60
2023-04-25T19:55:07.086Z,94.60
2023-04-25T19:57:37.584Z,94.60
2023-04-25T20:00:14.342Z,94.70
2023-04-25T20:02:43.699Z,94.70
2023-04-25T20:05:12.584Z,94.60
2023-04-25T20:07:39.560Z,94.60
2023-04-25T20:10:13.692Z,94.50
2023-04-25T20:12:40.649Z,94.50
2023-04-25T20:15:11.802Z,94.50
2023-04-25T20:17:40.306Z,94.60
2023-04-25T20:20:08.032Z,94.60
2023-04-25T20:22:38.804Z,94.70
2023-04-25T20:25:08.127Z,94.60
2023-04-25T20:27:35.071Z,94.70
2023-04-25T20:30:04.982Z,94.80
2023-04-25T20:32:32.203Z,94.80
2023-04-25T20:34:59.012Z,94.80
2023-04-25T20:37:25.798Z,94.90
2023-04-25T20:39:52.772Z,94.90
2023-04-25T20:42:19.601Z,94.90
2023-04-25T20:44:46.392Z,94.90
2023-04-25T20:47:13.133Z,94.90
2023-04-25T20:49:39.925Z,94.90
2023-04-25T20:52:07.697Z,94.90
2023-04-25T20:54:34.457Z,94.90
2023-04-25T20:57:02.361Z,94.90
2023-04-25T20:59:29.214Z,94.90
2023-04-25T21:01:56.471Z,95.00
2023-04-25T21:04:23.819Z,95.00
2023-04-25T21:06:50.676Z,95.00
2023-04-25T21:09:18.605Z,95.00
2023-04-25T21:11:46.201Z,95.10
2023-04-25T21:14:12.984Z,95.10
2023-04-25T21:16:40.866Z,95.10
2023-04-25T21:19:07.620Z,95.10
2023-04-25T21:21:34.434Z,95.10
2023-04-25T21:24:01.118Z,95.10
2023-04-25T21:26:27.910Z,95.10
2023-04-25T21:28:54.770Z,95.10
2023-04-25T21:31:22.123Z,95.10
2023-04-25T21:33:48.897Z,95.10
2023-04-25T21:36:15.859Z,95.10
2023-04-25T21:38:42.627Z,95.10
2023-04-25T21:41:09.393Z,95.20
2023-04-25T21:43:36.737Z,95.20
2023-04-25T21:46:19.059Z,95.20
2023-04-25T21:48:48.766Z,95.20
2023-04-25T21:51:15.493Z,95.20
2023-04-25T21:53:42.417Z,95.20
2023-04-25T21:56:10.645Z,95.10
2023-04-25T21:58:37.432Z,95.20
2023-04-25T22:01:07.141Z,95.20
2023-04-25T22:03:34.262Z,95.20
2023-04-25T22:06:01.243Z,95.20
2023-04-25T22:08:27.976Z,95.20
2023-04-25T22:10:57.826Z,95.20
2023-04-25T22:13:24.657Z,95.20
2023-04-25T22:15:52.589Z,95.20
2023-04-25T22:18:19.794Z,95.20
2023-04-25T22:20:46.560Z,95.10
2023-04-25T22:23:13.773Z,95.10
2023-04-25T22:25:40.640Z,95.10
2023-04-25T22:28:07.532Z,95.10
2023-04-25T22:30:35.040Z,95.10
2023-04-25T22:33:01.938Z,95.10
2023-04-25T22:35:28.737Z,95.10
2023-04-25T22:37:55.485Z,95.10
2023-04-25T22:40:22.245Z,95.20
2023-04-25T22:42:49.006Z,95.10
2023-04-25T22:45:16.049Z,95.20
2023-04-25T22:47:43.217Z,95.20
2023-04-25T22:50:13.924Z,95.20
2023-04-25T22:52:42.448Z,95.10
2023-04-25T22:55:11.023Z,95.10
2023-04-25T22:57:40.699Z,95.20
2023-04-25T23:00:15.664Z,95.20
2023-04-25T23:02:45.705Z,95.20
2023-04-25T23:05:13.729Z,95.20
2023-04-25T23:07:42.017Z,95.20
2023-04-25T23:10:09.340Z,95.10
2023-04-25T23:12:36.504Z,95.20
2023-04-25T23:15:05.141Z,95.20
2023-04-25T23:17:32.612Z,95.20
2023-04-25T23:19:59.635Z,95.20
2023-04-25T23:22:26.380Z,95.20
2023-04-25T23:24:53.153Z,95.20
2023-04-25T23:27:19.916Z,95.20
2023-04-25T23:29:54.714Z,95.20
2023-04-25T23:32:22.303Z,95.20
2023-04-25T23:34:49.455Z,95.20
2023-04-25T23:37:16.513Z,95.20
2023-04-25T23:39:52.945Z,95.20
2023-04-25T23:42:19.808Z,95.20
2023-04-25T23:44:46.578Z,95.10
2023-04-25T23:47:14.357Z,95.10
2023-04-25T23:49:41.459Z,95.10
2023-04-25T23:52:08.315Z,95.10
2023-04-25T23:54:35.413Z,95.10
2023-04-25T23:57:04.460Z,95.20
2023-04-25T23:59:31.725Z,95.20
